sensor_id;sensor_type;location;lat;lon;timestamp;temperature;humidity
24470;DHT22;12635;50.852;5.676;2023-04-03T00:01:06;0.90;99.90
24470;DHT22;12635;50.852;5.676;2023-04-03T00:03:33;0.80;99.90
24470;DHT22;12635;50.852;5.676;2023-04-03T00:06:02;0.90;99.90
24470;DHT22;12635;50.852;5.676;2023-04-03T00:08:31;0.80;99.90
24470;DHT22;12635;50.852;5.676;2023-04-03T00:10:58;0.80;99.90
24470;DHT22;12635;50.852;5.676;2023-04-03T00:13:24;0.70;99.90
24470;DHT22;12635;50.852;5.676;2023-04-03T00:15:52;0.80;99.90
24470;DHT22;12635;50.852;5.676;2023-04-03T00:18:19;0.40;99.90
24470;DHT22;12635;50.852;5.676;2023-04-03T00:20:46;0.60;99.90
24470;DHT22;12635;50.852;5.676;2023-04-03T00:23:14;0.60;99.90
24470;DHT22;12635;50.852;5.676;2023-04-03T00:25:41;0.50;99.90
24470;DHT22;12635;50.852;5.676;2023-04-03T00:28:08;0.60;99.90
24470;DHT22;12635;50.852;5.676;2023-04-03T00:30:35;0.60;99.90
24470;DHT22;12635;50.852;5.676;2023-04-03T00:33:02;0.60;99.90
24470;DHT22;12635;50.852;5.676;2023-04-03T00:35:29;0.50;99.90
24470;DHT22;12635;50.852;5.676;2023-04-03T00:37:56;0.50;99.90
24470;DHT22;12635;50.852;5.676;2023-04-03T00:40:25;0.20;99.90
24470;DHT22;12635;50.852;5.676;2023-04-03T00:42:55;0.20;99.90
24470;DHT22;12635;50.852;5.676;2023-04-03T00:45:26;0.00;99.90
24470;DHT22;12635;50.852;5.676;2023-04-03T00:47:53;0.00;99.90
24470;DHT22;12635;50.852;5.676;2023-04-03T00:50:20;0.10;99.90
24470;DHT22;12635;50.852;5.676;2023-04-03T00:52:47;0.30;99.90
24470;DHT22;12635;50.852;5.676;2023-04-03T00:55:14;0.40;99.90
24470;DHT22;12635;50.852;5.676;2023-04-03T00:57:43;0.60;99.90
24470;DHT22;12635;50.852;5.676;2023-04-03T01:00:12;0.80;99.90
24470;DHT22;12635;50.852;5.676;2023-04-03T01:02:39;0.80;99.90
24470;DHT22;12635;50.852;5.676;2023-04-03T01:05:06;0.70;99.90
24470;DHT22;12635;50.852;5.676;2023-04-03T01:07:33;0.50;99.90
24470;DHT22;12635;50.852;5.676;2023-04-03T01:10:03;0.40;99.90
24470;DHT22;12635;50.852;5.676;2023-04-03T01:12:31;0.40;99.90
24470;DHT22;12635;50.852;5.676;2023-04-03T01:15:00;0.10;99.90
24470;DHT22;12635;50.852;5.676;2023-04-03T01:17:28;0.20;99.90
24470;DHT22;12635;50.852;5.676;2023-04-03T01:19:58;0.20;99.90
24470;DHT22;12635;50.852;5.676;2023-04-03T01:22:29;0.40;99.90
24470;DHT22;12635;50.852;5.676;2023-04-03T01:25:00;0.20;99.90
24470;DHT22;12635;50.852;5.676;2023-04-03T01:27:27;0.00;99.90
24470;DHT22;12635;50.852;5.676;2023-04-03T01:29:54;-0.10;99.90
24470;DHT22;12635;50.852;5.676;2023-04-03T01:32:23;0.00;99.90
24470;DHT22;12635;50.852;5.676;2023-04-03T01:34:50;0.10;99.90
24470;DHT22;12635;50.852;5.676;2023-04-03T01:37:16;0.10;99.90
24470;DHT22;12635;50.852;5.676;2023-04-03T01:39:43;-0.10;99.90
24470;DHT22;12635;50.852;5.676;2023-04-03T01:42:10;-0.40;99.90
24470;DHT22;12635;50.852;5.676;2023-04-03T01:44:37;-0.40;99.90
24470;DHT22;12635;50.852;5.676;2023-04-03T01:47:05;-0.30;99.90
24470;DHT22;12635;50.852;5.676;2023-04-03T01:49:33;0.10;99.90
24470;DHT22;12635;50.852;5.676;2023-04-03T01:52:00;0.30;99.90
24470;DHT22;12635;50.852;5.676;2023-04-03T01:54:27;0.20;99.90
24470;DHT22;12635;50.852;5.676;2023-04-03T01:56:54;0.30;99.90
24470;DHT22;12635;50.852;5.676;2023-04-03T01:59:21;0.30;99.90
24470;DHT22;12635;50.852;5.676;2023-04-03T02:01:47;0.10;99.90
24470;DHT22;12635;50.852;5.676;2023-04-03T02:04:14;0.40;99.90
24470;DHT22;12635;50.852;5.676;2023-04-03T02:06:43;0.50;99.90
24470;DHT22;12635;50.852;5.676;2023-04-03T02:09:10;0.50;99.90
24470;DHT22;12635;50.852;5.676;2023-04-03T02:11:36;0.50;99.90
24470;DHT22;12635;50.852;5.676;2023-04-03T02:14:03;0.50;99.90
24470;DHT22;12635;50.852;5.676;2023-04-03T02:16:30;0.30;99.90
24470;DHT22;12635;50.852;5.676;2023-04-03T02:18:57;0.20;99.90
24470;DHT22;12635;50.852;5.676;2023-04-03T02:21:24;0.20;99.90
24470;DHT22;12635;50.852;5.676;2023-04-03T02:23:52;0.20;99.90
24470;DHT22;12635;50.852;5.676;2023-04-03T02:26:19;0.00;99.90
24470;DHT22;12635;50.852;5.676;2023-04-03T02:28:46;0.00;99.90
24470;DHT22;12635;50.852;5.676;2023-04-03T02:31:13;0.00;99.90
24470;DHT22;12635;50.852;5.676;2023-04-03T02:33:40;-0.20;99.90
24470;DHT22;12635;50.852;5.676;2023-04-03T02:36:07;-0.50;99.90
24470;DHT22;12635;50.852;5.676;2023-04-03T02:38:34;-0.20;99.90
24470;DHT22;12635;50.852;5.676;2023-04-03T02:41:03;-0.30;99.90
24470;DHT22;12635;50.852;5.676;2023-04-03T02:43:30;-0.20;99.90
24470;DHT22;12635;50.852;5.676;2023-04-03T02:45:57;-0.10;99.90
24470;DHT22;12635;50.852;5.676;2023-04-03T02:48:24;-0.10;99.90
24470;DHT22;12635;50.852;5.676;2023-04-03T02:50:51;0.20;99.90
24470;DHT22;12635;50.852;5.676;2023-04-03T02:53:19;0.30;99.90
24470;DHT22;12635;50.852;5.676;2023-04-03T02:55:46;0.10;99.90
24470;DHT22;12635;50.852;5.676;2023-04-03T02:58:14;0.00;99.90
24470;DHT22;12635;50.852;5.676;2023-04-03T03:00:41;0.10;99.90
24470;DHT22;12635;50.852;5.676;2023-04-03T03:03:07;0.20;99.90
24470;DHT22;12635;50.852;5.676;2023-04-03T03:05:34;0.30;99.90
24470;DHT22;12635;50.852;5.676;2023-04-03T03:08:01;0.20;99.90
24470;DHT22;12635;50.852;5.676;2023-04-03T03:10:28;0.10;99.90
24470;DHT22;12635;50.852;5.676;2023-04-03T03:12:55;0.30;99.90
24470;DHT22;12635;50.852;5.676;2023-04-03T03:15:23;0.40;99.90
24470;DHT22;12635;50.852;5.676;2023-04-03T03:17:50;0.30;99.90
24470;DHT22;12635;50.852;5.676;2023-04-03T03:20:17;0.20;99.90
24470;DHT22;12635;50.852;5.676;2023-04-03T03:22:44;0.20;99.90
24470;DHT22;12635;50.852;5.676;2023-04-03T03:25:10;0.30;99.90
24470;DHT22;12635;50.852;5.676;2023-04-03T03:27:37;0.20;99.90
24470;DHT22;12635;50.852;5.676;2023-04-03T03:30:05;-0.10;99.90
24470;DHT22;12635;50.852;5.676;2023-04-03T03:32:33;-0.30;99.90
24470;DHT22;12635;50.852;5.676;2023-04-03T03:35:00;-0.50;99.90
24470;DHT22;12635;50.852;5.676;2023-04-03T03:37:27;-0.50;99.90
24470;DHT22;12635;50.852;5.676;2023-04-03T03:39:54;-0.30;99.90
24470;DHT22;12635;50.852;5.676;2023-04-03T03:42:21;-0.20;99.90
24470;DHT22;12635;50.852;5.676;2023-04-03T03:44:47;-0.40;99.90
24470;DHT22;12635;50.852;5.676;2023-04-03T03:47:14;-0.70;99.90
24470;DHT22;12635;50.852;5.676;2023-04-03T03:49:42;-0.60;99.90
24470;DHT22;12635;50.852;5.676;2023-04-03T03:52:09;-0.50;99.90
24470;DHT22;12635;50.852;5.676;2023-04-03T03:54:37;-0.50;99.90
24470;DHT22;12635;50.852;5.676;2023-04-03T03:57:04;-0.60;99.90
24470;DHT22;12635;50.852;5.676;2023-04-03T03:59:31;-0.50;99.90
24470;DHT22;12635;50.852;5.676;2023-04-03T04:01:57;-0.30;99.90
24470;DHT22;12635;50.852;5.676;2023-04-03T04:04:24;-0.20;99.90
24470;DHT22;12635;50.852;5.676;2023-04-03T04:06:53;-0.30;99.90
24470;DHT22;12635;50.852;5.676;2023-04-03T04:09:19;-0.40;99.90
24470;DHT22;12635;50.852;5.676;2023-04-03T04:11:47;-0.60;99.90
24470;DHT22;12635;50.852;5.676;2023-04-03T04:14:13;-0.70;99.90
24470;DHT22;12635;50.852;5.676;2023-04-03T04:16:40;-0.90;99.90
24470;DHT22;12635;50.852;5.676;2023-04-03T04:19:07;-1.00;99.90
24470;DHT22;12635;50.852;5.676;2023-04-03T04:21:34;-1.10;99.90
24470;DHT22;12635;50.852;5.676;2023-04-03T04:24:02;-0.60;99.90
24470;DHT22;12635;50.852;5.676;2023-04-03T04:26:29;-0.80;99.90
24470;DHT22;12635;50.852;5.676;2023-04-03T04:28:56;-0.90;99.90
24470;DHT22;12635;50.852;5.676;2023-04-03T04:31:23;-0.60;99.90
24470;DHT22;12635;50.852;5.676;2023-04-03T04:33:50;-0.70;99.90
24470;DHT22;12635;50.852;5.676;2023-04-03T04:36:16;-0.70;99.90
24470;DHT22;12635;50.852;5.676;2023-04-03T04:38:43;-0.70;99.90
24470;DHT22;12635;50.852;5.676;2023-04-03T04:41:11;-0.40;99.90
24470;DHT22;12635;50.852;5.676;2023-04-03T04:43:38;-0.50;99.90
24470;DHT22;12635;50.852;5.676;2023-04-03T04:46:06;-0.60;99.90
24470;DHT22;12635;50.852;5.676;2023-04-03T04:48:33;-0.90;99.90
24470;DHT22;12635;50.852;5.676;2023-04-03T04:51:00;-1.20;99.90
24470;DHT22;12635;50.852;5.676;2023-04-03T04:53:27;-1.00;99.90
24470;DHT22;12635;50.852;5.676;2023-04-03T04:55:54;-0.70;99.90
24470;DHT22;12635;50.852;5.676;2023-04-03T04:58:22;-0.60;99.90
24470;DHT22;12635;50.852;5.676;2023-04-03T05:00:49;-0.50;99.90
24470;DHT22;12635;50.852;5.676;2023-04-03T05:03:16;-0.50;99.90
24470;DHT22;12635;50.852;5.676;2023-04-03T05:05:43;-0.50;99.90
24470;DHT22;12635;50.852;5.676;2023-04-03T05:08:09;-0.60;99.90
24470;DHT22;12635;50.852;5.676;2023-04-03T05:10:36;-0.60;99.90
24470;DHT22;12635;50.852;5.676;2023-04-03T05:13:03;-0.60;99.90
24470;DHT22;12635;50.852;5.676;2023-04-03T05:15:31;-0.90;99.90
24470;DHT22;12635;50.852;5.676;2023-04-03T05:17:58;-0.90;99.90
24470;DHT22;12635;50.852;5.676;2023-04-03T05:20:25;-0.60;99.90
24470;DHT22;12635;50.852;5.676;2023-04-03T05:22:52;-0.80;99.90
24470;DHT22;12635;50.852;5.676;2023-04-03T05:25:19;-0.60;99.90
24470;DHT22;12635;50.852;5.676;2023-04-03T05:27:45;-0.30;99.90
24470;DHT22;12635;50.852;5.676;2023-04-03T05:30:12;-0.50;99.90
24470;DHT22;12635;50.852;5.676;2023-04-03T05:32:41;-0.40;99.90
24470;DHT22;12635;50.852;5.676;2023-04-03T05:35:08;-0.20;99.90
24470;DHT22;12635;50.852;5.676;2023-04-03T05:37:35;0.00;99.90
24470;DHT22;12635;50.852;5.676;2023-04-03T05:40:02;0.20;99.90
24470;DHT22;12635;50.852;5.676;2023-04-03T05:42:29;0.30;99.90
24470;DHT22;12635;50.852;5.676;2023-04-03T05:44:56;0.40;99.90
24470;DHT22;12635;50.852;5.676;2023-04-03T05:47:23;0.20;99.90
24470;DHT22;12635;50.852;5.676;2023-04-03T05:49:51;0.10;99.90
24470;DHT22;12635;50.852;5.676;2023-04-03T05:52:20;0.00;99.90
24470;DHT22;12635;50.852;5.676;2023-04-03T05:54:48;0.40;99.90
24470;DHT22;12635;50.852;5.676;2023-04-03T05:57:15;0.40;99.90
24470;DHT22;12635;50.852;5.676;2023-04-03T05:59:42;0.60;99.90
24470;DHT22;12635;50.852;5.676;2023-04-03T06:02:10;0.70;99.90
24470;DHT22;12635;50.852;5.676;2023-04-03T06:04:37;0.80;99.90
24470;DHT22;12635;50.852;5.676;2023-04-03T06:07:05;0.90;99.90
24470;DHT22;12635;50.852;5.676;2023-04-03T06:09:32;1.10;99.90
24470;DHT22;12635;50.852;5.676;2023-04-03T06:11:59;1.10;99.90
24470;DHT22;12635;50.852;5.676;2023-04-03T06:14:27;1.30;99.90
24470;DHT22;12635;50.852;5.676;2023-04-03T06:16:54;1.20;99.90
24470;DHT22;12635;50.852;5.676;2023-04-03T06:19:21;1.30;99.90
24470;DHT22;12635;50.852;5.676;2023-04-03T06:21:48;1.40;99.90
24470;DHT22;12635;50.852;5.676;2023-04-03T06:24:17;1.50;99.90
24470;DHT22;12635;50.852;5.676;2023-04-03T06:26:45;1.40;99.90
24470;DHT22;12635;50.852;5.676;2023-04-03T06:29:12;1.60;99.90
24470;DHT22;12635;50.852;5.676;2023-04-03T06:31:39;2.00;99.90
24470;DHT22;12635;50.852;5.676;2023-04-03T06:34:06;2.50;99.90
24470;DHT22;12635;50.852;5.676;2023-04-03T06:36:32;2.50;99.90
24470;DHT22;12635;50.852;5.676;2023-04-03T06:38:59;2.60;99.90
24470;DHT22;12635;50.852;5.676;2023-04-03T06:41:28;3.10;99.90
24470;DHT22;12635;50.852;5.676;2023-04-03T06:43:55;3.10;99.90
24470;DHT22;12635;50.852;5.676;2023-04-03T06:46:23;3.80;99.90
24470;DHT22;12635;50.852;5.676;2023-04-03T06:48:50;4.10;99.90
24470;DHT22;12635;50.852;5.676;2023-04-03T06:51:18;3.90;99.90
24470;DHT22;12635;50.852;5.676;2023-04-03T06:53:46;4.20;99.90
24470;DHT22;12635;50.852;5.676;2023-04-03T06:56:13;3.80;99.90
24470;DHT22;12635;50.852;5.676;2023-04-03T06:58:41;4.00;99.90
24470;DHT22;12635;50.852;5.676;2023-04-03T07:01:08;4.60;99.90
24470;DHT22;12635;50.852;5.676;2023-04-03T07:03:36;4.60;99.90
24470;DHT22;12635;50.852;5.676;2023-04-03T07:06:03;4.10;99.90
24470;DHT22;12635;50.852;5.676;2023-04-03T07:08:30;4.90;99.90
24470;DHT22;12635;50.852;5.676;2023-04-03T07:10:57;5.00;99.90
24470;DHT22;12635;50.852;5.676;2023-04-03T07:13:24;5.10;99.90
24470;DHT22;12635;50.852;5.676;2023-04-03T07:15:53;5.10;99.90
24470;DHT22;12635;50.852;5.676;2023-04-03T07:18:20;5.20;99.90
24470;DHT22;12635;50.852;5.676;2023-04-03T07:20:47;5.20;99.90
24470;DHT22;12635;50.852;5.676;2023-04-03T07:23:14;4.90;99.90
24470;DHT22;12635;50.852;5.676;2023-04-03T07:25:42;6.20;99.90
24470;DHT22;12635;50.852;5.676;2023-04-03T07:28:09;5.60;99.90
24470;DHT22;12635;50.852;5.676;2023-04-03T07:30:41;5.70;99.90
24470;DHT22;12635;50.852;5.676;2023-04-03T07:33:10;6.60;99.90
24470;DHT22;12635;50.852;5.676;2023-04-03T07:35:37;6.60;99.90
24470;DHT22;12635;50.852;5.676;2023-04-03T07:38:04;7.20;99.90
24470;DHT22;12635;50.852;5.676;2023-04-03T07:40:31;7.40;99.90
24470;DHT22;12635;50.852;5.676;2023-04-03T07:42:57;7.20;99.90
24470;DHT22;12635;50.852;5.676;2023-04-03T07:45:25;7.70;99.90
24470;DHT22;12635;50.852;5.676;2023-04-03T07:47:52;8.40;99.90
24470;DHT22;12635;50.852;5.676;2023-04-03T07:50:20;8.80;99.90
24470;DHT22;12635;50.852;5.676;2023-04-03T07:52:47;7.90;99.90
24470;DHT22;12635;50.852;5.676;2023-04-03T07:55:16;8.70;99.90
24470;DHT22;12635;50.852;5.676;2023-04-03T07:57:43;8.10;99.90
24470;DHT22;12635;50.852;5.676;2023-04-03T08:00:11;7.70;99.90
24470;DHT22;12635;50.852;5.676;2023-04-03T08:02:38;8.60;99.90
24470;DHT22;12635;50.852;5.676;2023-04-03T08:05:05;7.20;99.90
24470;DHT22;12635;50.852;5.676;2023-04-03T08:07:34;8.00;99.90
24470;DHT22;12635;50.852;5.676;2023-04-03T08:10:03;8.30;99.90
24470;DHT22;12635;50.852;5.676;2023-04-03T08:12:30;10.00;99.90
24470;DHT22;12635;50.852;5.676;2023-04-03T08:14:57;8.90;99.90
24470;DHT22;12635;50.852;5.676;2023-04-03T08:17:25;8.40;99.90
24470;DHT22;12635;50.852;5.676;2023-04-03T08:19:52;8.10;99.90
24470;DHT22;12635;50.852;5.676;2023-04-03T08:22:19;8.50;99.90
24470;DHT22;12635;50.852;5.676;2023-04-03T08:24:48;9.90;99.90
24470;DHT22;12635;50.852;5.676;2023-04-03T08:27:14;9.40;99.90
24470;DHT22;12635;50.852;5.676;2023-04-03T08:29:41;8.70;99.90
24470;DHT22;12635;50.852;5.676;2023-04-03T08:32:08;9.30;99.90
24470;DHT22;12635;50.852;5.676;2023-04-03T08:34:35;10.30;99.90
24470;DHT22;12635;50.852;5.676;2023-04-03T08:37:04;8.50;99.90
24470;DHT22;12635;50.852;5.676;2023-04-03T08:39:31;9.90;99.90
24470;DHT22;12635;50.852;5.676;2023-04-03T08:42:00;10.30;99.90
24470;DHT22;12635;50.852;5.676;2023-04-03T08:44:31;10.00;99.90
24470;DHT22;12635;50.852;5.676;2023-04-03T08:47:08;10.40;99.90
24470;DHT22;12635;50.852;5.676;2023-04-03T08:49:39;9.80;99.90
24470;DHT22;12635;50.852;5.676;2023-04-03T08:52:13;10.30;99.90
24470;DHT22;12635;50.852;5.676;2023-04-03T08:54:49;10.50;99.90
24470;DHT22;12635;50.852;5.676;2023-04-03T08:57:17;9.40;99.90
24470;DHT22;12635;50.852;5.676;2023-04-03T08:59:46;9.80;99.90
24470;DHT22;12635;50.852;5.676;2023-04-03T09:02:18;9.80;99.90
24470;DHT22;12635;50.852;5.676;2023-04-03T09:04:49;9.40;99.90
24470;DHT22;12635;50.852;5.676;2023-04-03T09:07:17;9.60;99.90
24470;DHT22;12635;50.852;5.676;2023-04-03T09:09:48;10.50;99.90
24470;DHT22;12635;50.852;5.676;2023-04-03T09:12:18;10.30;99.90
24470;DHT22;12635;50.852;5.676;2023-04-03T09:14:51;10.50;99.90
24470;DHT22;12635;50.852;5.676;2023-04-03T09:17:24;10.40;99.90
24470;DHT22;12635;50.852;5.676;2023-04-03T09:19:54;10.40;99.90
24470;DHT22;12635;50.852;5.676;2023-04-03T09:22:25;10.40;99.90
24470;DHT22;12635;50.852;5.676;2023-04-03T09:24:55;10.00;99.90
24470;DHT22;12635;50.852;5.676;2023-04-03T09:27:25;8.80;99.90
24470;DHT22;12635;50.852;5.676;2023-04-03T09:29:52;11.20;99.90
24470;DHT22;12635;50.852;5.676;2023-04-03T09:32:22;10.60;99.90
24470;DHT22;12635;50.852;5.676;2023-04-03T09:34:51;10.90;99.90
24470;DHT22;12635;50.852;5.676;2023-04-03T09:37:36;11.20;99.90
24470;DHT22;12635;50.852;5.676;2023-04-03T09:40:04;11.90;99.90
24470;DHT22;12635;50.852;5.676;2023-04-03T09:42:32;9.70;99.90
24470;DHT22;12635;50.852;5.676;2023-04-03T09:45:00;11.40;99.90
24470;DHT22;12635;50.852;5.676;2023-04-03T09:47:27;10.40;99.90
24470;DHT22;12635;50.852;5.676;2023-04-03T09:50:08;11.40;99.90
24470;DHT22;12635;50.852;5.676;2023-04-03T09:52:35;10.30;99.90
24470;DHT22;12635;50.852;5.676;2023-04-03T09:55:06;10.80;99.90
24470;DHT22;12635;50.852;5.676;2023-04-03T09:57:35;10.90;99.90
24470;DHT22;12635;50.852;5.676;2023-04-03T10:00:02;11.40;99.90
24470;DHT22;12635;50.852;5.676;2023-04-03T10:02:35;11.90;99.90
24470;DHT22;12635;50.852;5.676;2023-04-03T10:05:02;11.40;99.90
24470;DHT22;12635;50.852;5.676;2023-04-03T10:07:31;11.60;99.90
24470;DHT22;12635;50.852;5.676;2023-04-03T10:09:59;11.90;99.90
24470;DHT22;12635;50.852;5.676;2023-04-03T10:12:27;11.80;99.90
24470;DHT22;12635;50.852;5.676;2023-04-03T10:14:56;12.40;99.90
24470;DHT22;12635;50.852;5.676;2023-04-03T10:17:26;11.90;99.90
24470;DHT22;12635;50.852;5.676;2023-04-03T10:19:58;11.40;99.90
24470;DHT22;12635;50.852;5.676;2023-04-03T10:22:29;11.50;99.90
24470;DHT22;12635;50.852;5.676;2023-04-03T10:25:00;9.90;99.90
24470;DHT22;12635;50.852;5.676;2023-04-03T10:27:35;9.40;99.90
24470;DHT22;12635;50.852;5.676;2023-04-03T10:30:08;9.90;99.90
24470;DHT22;12635;50.852;5.676;2023-04-03T10:32:48;9.10;99.90
24470;DHT22;12635;50.852;5.676;2023-04-03T10:35:22;8.80;99.90
24470;DHT22;12635;50.852;5.676;2023-04-03T10:37:55;9.10;99.90
24470;DHT22;12635;50.852;5.676;2023-04-03T10:40:29;8.60;99.90
24470;DHT22;12635;50.852;5.676;2023-04-03T10:42:59;8.40;99.90
24470;DHT22;12635;50.852;5.676;2023-04-03T10:45:31;9.00;99.90
24470;DHT22;12635;50.852;5.676;2023-04-03T10:48:01;8.20;99.90
24470;DHT22;12635;50.852;5.676;2023-04-03T10:50:31;8.80;99.90
24470;DHT22;12635;50.852;5.676;2023-04-03T10:53:04;9.60;99.90
24470;DHT22;12635;50.852;5.676;2023-04-03T10:55:35;9.20;99.90
24470;DHT22;12635;50.852;5.676;2023-04-03T10:58:03;9.30;99.90
24470;DHT22;12635;50.852;5.676;2023-04-03T11:00:33;9.40;99.90
24470;DHT22;12635;50.852;5.676;2023-04-03T11:03:03;8.60;99.90
24470;DHT22;12635;50.852;5.676;2023-04-03T11:05:34;8.60;99.90
24470;DHT22;12635;50.852;5.676;2023-04-03T11:08:04;9.00;99.90
24470;DHT22;12635;50.852;5.676;2023-04-03T11:10:36;9.30;99.90
24470;DHT22;12635;50.852;5.676;2023-04-03T11:13:06;9.10;99.90
24470;DHT22;12635;50.852;5.676;2023-04-03T11:15:37;8.90;99.90
24470;DHT22;12635;50.852;5.676;2023-04-03T11:18:06;8.80;99.90
24470;DHT22;12635;50.852;5.676;2023-04-03T11:20:33;9.70;99.90
24470;DHT22;12635;50.852;5.676;2023-04-03T11:23:03;9.30;99.90
24470;DHT22;12635;50.852;5.676;2023-04-03T11:25:31;9.30;99.90
24470;DHT22;12635;50.852;5.676;2023-04-03T11:28:00;9.10;99.90
24470;DHT22;12635;50.852;5.676;2023-04-03T11:30:28;9.30;99.90
24470;DHT22;12635;50.852;5.676;2023-04-03T11:33:12;9.30;99.90
24470;DHT22;12635;50.852;5.676;2023-04-03T11:35:42;9.30;99.90
24470;DHT22;12635;50.852;5.676;2023-04-03T11:38:10;9.60;99.90
24470;DHT22;12635;50.852;5.676;2023-04-03T11:40:41;8.80;99.90
24470;DHT22;12635;50.852;5.676;2023-04-03T11:43:17;9.30;99.90
24470;DHT22;12635;50.852;5.676;2023-04-03T11:45:50;9.70;99.90
24470;DHT22;12635;50.852;5.676;2023-04-03T11:56:44;10.00;99.90
24470;DHT22;12635;50.852;5.676;2023-04-03T11:59:23;9.70;99.90
24470;DHT22;12635;50.852;5.676;2023-04-03T12:01:50;9.40;99.90
24470;DHT22;12635;50.852;5.676;2023-04-03T12:04:18;9.50;99.90
24470;DHT22;12635;50.852;5.676;2023-04-03T12:06:59;9.70;99.90
24470;DHT22;12635;50.852;5.676;2023-04-03T12:09:27;9.20;99.90
24470;DHT22;12635;50.852;5.676;2023-04-03T12:11:56;9.60;99.90
24470;DHT22;12635;50.852;5.676;2023-04-03T12:14:24;10.00;99.90
24470;DHT22;12635;50.852;5.676;2023-04-03T12:16:52;10.20;99.90
24470;DHT22;12635;50.852;5.676;2023-04-03T12:19:29;10.20;99.90
24470;DHT22;12635;50.852;5.676;2023-04-03T12:22:10;9.40;99.90
24470;DHT22;12635;50.852;5.676;2023-04-03T12:24:37;9.70;99.90
24470;DHT22;12635;50.852;5.676;2023-04-03T12:27:13;9.20;99.90
24470;DHT22;12635;50.852;5.676;2023-04-03T12:29:43;9.40;99.90
24470;DHT22;12635;50.852;5.676;2023-04-03T12:32:15;10.20;99.90
24470;DHT22;12635;50.852;5.676;2023-04-03T12:34:48;10.20;99.90
24470;DHT22;12635;50.852;5.676;2023-04-03T12:37:21;10.00;99.90
24470;DHT22;12635;50.852;5.676;2023-04-03T12:39:52;10.10;99.90
24470;DHT22;12635;50.852;5.676;2023-04-03T12:42:25;9.80;99.90
24470;DHT22;12635;50.852;5.676;2023-04-03T12:44:59;9.70;99.90
24470;DHT22;12635;50.852;5.676;2023-04-03T12:47:29;10.20;99.90
24470;DHT22;12635;50.852;5.676;2023-04-03T12:49:58;9.70;99.90
24470;DHT22;12635;50.852;5.676;2023-04-03T12:52:30;9.50;99.90
24470;DHT22;12635;50.852;5.676;2023-04-03T12:54:58;9.70;99.90
24470;DHT22;12635;50.852;5.676;2023-04-03T12:57:28;10.30;99.90
24470;DHT22;12635;50.852;5.676;2023-04-03T12:59:55;10.30;99.90
24470;DHT22;12635;50.852;5.676;2023-04-03T13:02:23;10.30;99.90
24470;DHT22;12635;50.852;5.676;2023-04-03T13:04:51;10.60;99.90
24470;DHT22;12635;50.852;5.676;2023-04-03T13:07:20;10.90;99.90
24470;DHT22;12635;50.852;5.676;2023-04-03T13:09:54;10.80;99.90
24470;DHT22;12635;50.852;5.676;2023-04-03T13:12:21;10.40;99.90
24470;DHT22;12635;50.852;5.676;2023-04-03T13:14:52;10.30;99.90
24470;DHT22;12635;50.852;5.676;2023-04-03T13:17:21;10.50;99.90
24470;DHT22;12635;50.852;5.676;2023-04-03T13:19:48;11.60;99.90
24470;DHT22;12635;50.852;5.676;2023-04-03T13:22:21;11.40;99.90
24470;DHT22;12635;50.852;5.676;2023-04-03T13:24:50;11.90;99.90
24470;DHT22;12635;50.852;5.676;2023-04-03T13:27:17;12.90;99.90
24470;DHT22;12635;50.852;5.676;2023-04-03T13:29:48;12.80;99.90
24470;DHT22;12635;50.852;5.676;2023-04-03T13:32:19;12.40;99.90
24470;DHT22;12635;50.852;5.676;2023-04-03T13:34:46;12.30;99.90
24470;DHT22;12635;50.852;5.676;2023-04-03T13:37:20;13.20;99.90
24470;DHT22;12635;50.852;5.676;2023-04-03T13:39:56;14.50;99.90
24470;DHT22;12635;50.852;5.676;2023-04-03T13:42:25;12.90;99.90
24470;DHT22;12635;50.852;5.676;2023-04-03T13:47:43;13.70;99.90
24470;DHT22;12635;50.852;5.676;2023-04-03T13:50:14;13.40;99.90
24470;DHT22;12635;50.852;5.676;2023-04-03T13:52:42;13.20;99.90
24470;DHT22;12635;50.852;5.676;2023-04-03T13:55:16;14.20;99.90
24470;DHT22;12635;50.852;5.676;2023-04-03T13:57:54;14.60;99.90
24470;DHT22;12635;50.852;5.676;2023-04-03T14:00:26;13.60;99.90
24470;DHT22;12635;50.852;5.676;2023-04-03T14:02:55;15.00;99.90
24470;DHT22;12635;50.852;5.676;2023-04-03T14:05:23;13.20;99.90
24470;DHT22;12635;50.852;5.676;2023-04-03T14:07:50;13.30;99.90
24470;DHT22;12635;50.852;5.676;2023-04-03T14:10:17;13.50;99.90
24470;DHT22;12635;50.852;5.676;2023-04-03T14:12:44;13.30;99.90
24470;DHT22;12635;50.852;5.676;2023-04-03T14:15:15;13.00;99.90
24470;DHT22;12635;50.852;5.676;2023-04-03T14:17:42;13.20;99.90
24470;DHT22;12635;50.852;5.676;2023-04-03T14:20:13;13.40;99.90
24470;DHT22;12635;50.852;5.676;2023-04-03T14:22:40;13.40;99.90
24470;DHT22;12635;50.852;5.676;2023-04-03T14:25:07;12.50;99.90
24470;DHT22;12635;50.852;5.676;2023-04-03T14:27:37;13.00;99.90
24470;DHT22;12635;50.852;5.676;2023-04-03T14:30:07;13.10;99.90
24470;DHT22;12635;50.852;5.676;2023-04-03T14:32:34;12.20;99.90
24470;DHT22;12635;50.852;5.676;2023-04-03T14:35:01;12.60;99.90
24470;DHT22;12635;50.852;5.676;2023-04-03T14:37:30;12.20;99.90
24470;DHT22;12635;50.852;5.676;2023-04-03T14:39:58;14.00;99.90
24470;DHT22;12635;50.852;5.676;2023-04-03T14:42:26;14.50;99.90
24470;DHT22;12635;50.852;5.676;2023-04-03T14:44:53;13.60;99.90
24470;DHT22;12635;50.852;5.676;2023-04-03T14:47:20;13.90;99.90
24470;DHT22;12635;50.852;5.676;2023-04-03T14:49:48;12.80;99.90
24470;DHT22;12635;50.852;5.676;2023-04-03T14:52:18;13.10;99.90
24470;DHT22;12635;50.852;5.676;2023-04-03T14:54:46;12.80;99.90
24470;DHT22;12635;50.852;5.676;2023-04-03T14:57:14;13.00;99.90
24470;DHT22;12635;50.852;5.676;2023-04-03T14:59:41;13.10;99.90
24470;DHT22;12635;50.852;5.676;2023-04-03T15:02:20;12.20;99.90
24470;DHT22;12635;50.852;5.676;2023-04-03T15:04:50;12.90;99.90
24470;DHT22;12635;50.852;5.676;2023-04-03T15:07:17;12.30;99.90
24470;DHT22;12635;50.852;5.676;2023-04-03T15:09:45;12.50;99.90
24470;DHT22;12635;50.852;5.676;2023-04-03T15:12:12;12.60;99.90
24470;DHT22;12635;50.852;5.676;2023-04-03T15:14:39;12.50;99.90
24470;DHT22;12635;50.852;5.676;2023-04-03T15:17:08;12.20;99.90
24470;DHT22;12635;50.852;5.676;2023-04-03T15:19:37;13.00;99.90
24470;DHT22;12635;50.852;5.676;2023-04-03T15:22:04;13.20;99.90
24470;DHT22;12635;50.852;5.676;2023-04-03T15:24:31;12.20;99.90
24470;DHT22;12635;50.852;5.676;2023-04-03T15:27:00;12.90;99.90
24470;DHT22;12635;50.852;5.676;2023-04-03T15:29:27;13.30;99.90
24470;DHT22;12635;50.852;5.676;2023-04-03T15:31:55;12.80;99.90
24470;DHT22;12635;50.852;5.676;2023-04-03T15:34:21;12.90;99.90
24470;DHT22;12635;50.852;5.676;2023-04-03T15:36:48;12.10;99.90
24470;DHT22;12635;50.852;5.676;2023-04-03T15:39:17;12.30;99.90
24470;DHT22;12635;50.852;5.676;2023-04-03T15:41:46;12.10;99.90
24470;DHT22;12635;50.852;5.676;2023-04-03T15:44:14;12.30;99.90
24470;DHT22;12635;50.852;5.676;2023-04-03T15:46:42;12.30;99.90
24470;DHT22;12635;50.852;5.676;2023-04-03T15:49:09;12.30;99.90
24470;DHT22;12635;50.852;5.676;2023-04-03T15:51:36;11.90;99.90
24470;DHT22;12635;50.852;5.676;2023-04-03T15:54:03;12.50;99.90
24470;DHT22;12635;50.852;5.676;2023-04-03T15:56:30;13.50;99.90
24470;DHT22;12635;50.852;5.676;2023-04-03T15:58:57;12.30;99.90